Time;durP1;ratioP1;P1;durP2;ratioP2;P2;SDS_P1;SDS_P2;PMS_P1;PMS_P2;Temp;Humidity;BMP_temperature;BMP_pressure;BME280_temperature;BME280_humidity;BME280_pressure;Samples;Min_cycle;Max_cycle;Signal;HPM_P1;HPM_P2
2022/08/06 00:02:28;;;;;;;4.05;3.55;;;;;;;;;;5015138;28;20018;-86
2022/08/06 00:04:56;;;;;;;4.80;2.92;;;;;;;;;;5017627;28;20026;-89
2022/08/06 00:07:21;;;;;;;4.03;3.03;;;;;;;;;;4999843;28;20029;-85
2022/08/06 00:09:47;;;;;;;3.40;3.08;;;;;;;;;;5010430;28;20028;-85
2022/08/06 00:12:12;;;;;;;4.40;3.30;;;;;;;;;;5008172;28;20100;-86
2022/08/06 00:14:38;;;;;;;4.00;3.05;;;;;;;;;;5014212;28;20029;-85
2022/08/06 00:17:03;;;;;;;5.55;3.38;;;;;;;;;;5015974;28;20029;-85
2022/08/06 00:19:29;;;;;;;3.65;3.10;;;;;;;;;;5012080;28;20069;-86
2022/08/06 00:21:55;;;;;;;3.47;3.15;;;;;;;;;;5012240;28;20037;-85
2022/08/06 00:24:21;;;;;;;4.28;3.28;;;;;;;;;;5012744;28;20030;-86
2022/08/06 00:26:47;;;;;;;4.55;3.25;;;;;;;;;;4995576;28;20103;-85
2022/08/06 00:29:13;;;;;;;4.10;3.28;;;;;;;;;;5021364;28;20196;-86
2022/08/06 00:31:38;;;;;;;4.20;3.72;;;;;;;;;;5015497;28;20478;-85
2022/08/06 00:34:04;;;;;;;3.97;3.30;;;;;;;;;;5005558;28;20077;-86
2022/08/06 00:36:31;;;;;;;3.92;3.10;;;;;;;;;;5021156;28;20054;-86
2022/08/06 00:38:58;;;;;;;5.35;2.92;;;;;;;;;;5009118;28;20102;-87
2022/08/06 00:41:24;;;;;;;5.10;3.33;;;;;;;;;;5011020;28;20042;-85
2022/08/06 00:43:50;;;;;;;4.22;3.40;;;;;;;;;;5002157;28;20490;-85
2022/08/06 00:46:15;;;;;;;4.85;3.20;;;;;;;;;;5026568;28;20107;-88
2022/08/06 00:48:41;;;;;;;4.30;3.45;;;;;;;;;;5004305;28;20025;-86
2022/08/06 00:51:06;;;;;;;4.93;3.30;;;;;;;;;;5019165;28;20034;-87
2022/08/06 00:53:32;;;;;;;3.47;2.92;;;;;;;;;;5024122;28;20838;-87
2022/08/06 00:55:58;;;;;;;3.85;3.25;;;;;;;;;;5027832;28;20030;-87
2022/08/06 00:58:23;;;;;;;4.80;3.40;;;;;;;;;;4999452;28;20393;-87
2022/08/06 01:00:49;;;;;;;3.88;3.47;;;;;;;;;;5018149;28;20026;-86
2022/08/06 01:03:16;;;;;;;4.35;3.17;;;;;;;;;;5008600;28;20037;-88
2022/08/06 01:05:43;;;;;;;3.38;2.83;;;;;;;;;;5025823;28;20100;-87
2022/08/06 01:08:09;;;;;;;3.70;3.30;;;;;;;;;;5021035;28;20026;-86
2022/08/06 01:10:35;;;;;;;4.00;3.22;;;;;;;;;;5023680;28;20032;-85
2022/08/06 01:13:01;;;;;;;4.65;3.42;;;;;;;;;;5018466;28;20026;-86
2022/08/06 01:15:26;;;;;;;3.97;2.92;;;;;;;;;;5019244;28;20030;-86
2022/08/06 01:17:55;;;;;;;3.78;3.30;;;;;;;;;;4991230;28;20470;-86
2022/08/06 01:20:23;;;;;;;4.75;3.20;;;;;;;;;;5009833;28;20034;-86
2022/08/06 01:22:55;;;;;;;4.82;3.08;;;;;;;;;;5017109;28;20489;-86
2022/08/06 01:25:35;;;;;;;3.88;3.35;;;;;;;;;;5007938;28;20389;-86
2022/08/06 01:28:07;;;;;;;3.53;3.10;;;;;;;;;;5018800;28;20025;-86
2022/08/06 01:30:40;;;;;;;9.15;4.70;;;;;;;;;;5020155;28;20034;-86
2022/08/06 01:33:23;;;;;;;5.03;3.47;;;;;;;;;;5010030;28;20115;-86
2022/08/06 01:35:53;;;;;;;3.60;3.10;;;;;;;;;;5006923;28;20029;-86
2022/08/06 01:38:35;;;;;;;3.75;3.20;;;;;;;;;;5001071;28;20440;-87
2022/08/06 01:41:11;;;;;;;3.88;3.40;;;;;;;;;;5017482;28;20534;-86
2022/08/06 01:43:38;;;;;;;3.70;3.30;;;;;;;;;;5018804;28;20030;-86
2022/08/06 01:46:05;;;;;;;3.90;2.92;;;;;;;;;;5014106;28;20033;-86
2022/08/06 01:48:32;;;;;;;4.15;3.28;;;;;;;;;;5015665;28;20038;-86
2022/08/06 01:51:02;;;;;;;3.72;3.35;;;;;;;;;;5013765;28;20029;-86
2022/08/06 01:53:36;;;;;;;3.80;3.25;;;;;;;;;;4998608;28;20021;-86
2022/08/06 01:56:04;;;;;;;3.75;3.30;;;;;;;;;;5009127;28;20378;-86
2022/08/06 01:58:36;;;;;;;5.07;3.70;;;;;;;;;;5018004;28;20092;-86
2022/08/06 02:01:06;;;;;;;3.90;3.30;;;;;;;;;;5020025;28;20474;-86
2022/08/06 02:03:45;;;;;;;4.68;3.92;;;;;;;;;;5009827;28;20525;-86
2022/08/06 02:06:16;;;;;;;3.80;3.30;;;;;;;;;;5017634;28;20034;-86
2022/08/06 02:08:43;;;;;;;3.92;3.22;;;;;;;;;;4995422;28;20026;-86
2022/08/06 02:11:11;;;;;;;3.95;3.42;;;;;;;;;;5003873;28;20022;-87
2022/08/06 02:13:38;;;;;;;4.25;3.40;;;;;;;;;;5015760;28;20022;-85
2022/08/06 02:16:08;;;;;;;5.65;3.15;;;;;;;;;;5028085;28;20032;-86
2022/08/06 02:18:37;;;;;;;3.67;3.08;;;;;;;;;;5020595;28;22098;-86
2022/08/06 02:21:23;;;;;;;3.90;3.50;;;;;;;;;;5016341;28;20029;-85
2022/08/06 02:23:51;;;;;;;5.75;3.47;;;;;;;;;;5021531;28;20030;-86
2022/08/06 02:26:19;;;;;;;4.10;3.53;;;;;;;;;;5003550;28;20120;-86
2022/08/06 02:28:46;;;;;;;4.65;2.90;;;;;;;;;;5022015;28;20469;-86
2022/08/06 02:31:12;;;;;;;4.93;3.40;;;;;;;;;;5017097;28;20389;-87
2022/08/06 02:33:38;;;;;;;3.78;3.40;;;;;;;;;;5020616;28;20084;-87
2022/08/06 02:36:19;;;;;;;3.47;3.08;;;;;;;;;;5021862;28;20026;-86
2022/08/06 02:38:53;;;;;;;4.25;3.40;;;;;;;;;;5015877;28;20053;-88
2022/08/06 02:41:34;;;;;;;3.83;3.42;;;;;;;;;;5008047;28;20045;-87
2022/08/06 02:44:09;;;;;;;3.50;3.10;;;;;;;;;;5006105;28;20037;-86
2022/08/06 02:46:48;;;;;;;3.30;3.00;;;;;;;;;;5019866;28;20057;-87
2022/08/06 02:49:22;;;;;;;4.55;3.22;;;;;;;;;;4994971;28;20413;-86
2022/08/06 02:52:00;;;;;;;4.68;3.70;;;;;;;;;;5017070;28;20036;-86
2022/08/06 02:54:38;;;;;;;6.80;3.35;;;;;;;;;;5007682;28;20040;-87
2022/08/06 02:57:07;;;;;;;3.30;3.00;;;;;;;;;;5006319;28;20446;-86
2022/08/06 02:59:38;;;;;;;3.67;3.13;;;;;;;;;;5003626;28;20029;-86
2022/08/06 03:02:07;;;;;;;4.55;3.03;;;;;;;;;;5016058;28;20052;-87
2022/08/06 03:04:34;;;;;;;3.90;3.47;;;;;;;;;;5010094;28;20037;-85
2022/08/06 03:07:05;;;;;;;4.28;3.15;;;;;;;;;;5021321;28;20494;-86
2022/08/06 03:09:31;;;;;;;10.23;3.60;;;;;;;;;;5015807;28;20037;-85
2022/08/06 03:11:58;;;;;;;5.07;3.28;;;;;;;;;;5019952;28;20386;-85
2022/08/06 03:14:24;;;;;;;4.20;3.60;;;;;;;;;;5009765;28;20021;-86
2022/08/06 03:16:52;;;;;;;3.85;3.22;;;;;;;;;;5006020;28;20026;-86
2022/08/06 03:19:19;;;;;;;3.80;3.30;;;;;;;;;;5013101;28;20485;-84
2022/08/06 03:21:46;;;;;;;3.30;3.00;;;;;;;;;;5010774;28;20092;-87
2022/08/06 03:24:12;;;;;;;4.90;3.17;;;;;;;;;;5009504;28;20029;-86
2022/08/06 03:26:39;;;;;;;4.32;3.50;;;;;;;;;;5003393;28;20026;-85
2022/08/06 03:29:06;;;;;;;4.88;3.80;;;;;;;;;;5012823;28;20088;-85
2022/08/06 03:31:32;;;;;;;5.10;3.03;;;;;;;;;;5021771;28;20029;-86
2022/08/06 03:33:59;;;;;;;4.05;3.40;;;;;;;;;;5015260;28;20426;-86
2022/08/06 03:36:26;;;;;;;4.55;3.78;;;;;;;;;;5011805;28;20032;-86
2022/08/06 03:38:58;;;;;;;4.50;3.30;;;;;;;;;;5013517;28;20026;-86
2022/08/06 03:41:25;;;;;;;3.78;2.90;;;;;;;;;;4996486;28;20902;-86
2022/08/06 03:43:51;;;;;;;4.28;3.40;;;;;;;;;;5002235;28;20052;-86
2022/08/06 03:46:26;;;;;;;3.72;3.03;;;;;;;;;;5020630;28;20030;-86
2022/08/06 03:48:53;;;;;;;4.88;3.63;;;;;;;;;;5019321;28;20083;-86
2022/08/06 03:51:23;;;;;;;3.70;3.30;;;;;;;;;;5012348;28;20030;-87
2022/08/06 03:53:49;;;;;;;4.90;3.90;;;;;;;;;;5017528;28;20493;-86
2022/08/06 03:56:20;;;;;;;5.20;3.80;;;;;;;;;;5012298;28;20026;-87
2022/08/06 03:58:49;;;;;;;4.13;3.50;;;;;;;;;;5019289;28;20120;-87
2022/08/06 04:01:21;;;;;;;4.60;3.60;;;;;;;;;;5007142;28;20030;-87
2022/08/06 04:03:47;;;;;;;4.93;3.80;;;;;;;;;;5016197;28;20030;-87
2022/08/06 04:06:13;;;;;;;5.32;3.47;;;;;;;;;;5018766;28;20105;-86
2022/08/06 04:08:40;;;;;;;3.22;2.90;;;;;;;;;;4983929;28;20151;-85
2022/08/06 04:11:08;;;;;;;4.30;3.22;;;;;;;;;;5001106;28;20033;-84
2022/08/06 04:13:36;;;;;;;4.72;3.88;;;;;;;;;;5014707;28;20022;-86
2022/08/06 04:16:02;;;;;;;4.55;3.72;;;;;;;;;;5001364;28;20026;-84
2022/08/06 04:18:32;;;;;;;3.92;3.53;;;;;;;;;;5019553;28;20381;-86
2022/08/06 04:21:02;;;;;;;5.38;4.18;;;;;;;;;;5012215;28;20040;-85
2022/08/06 04:23:29;;;;;;;4.30;3.65;;;;;;;;;;5018982;28;20104;-83
2022/08/06 04:25:58;;;;;;;5.47;3.67;;;;;;;;;;5010163;28;20061;-87
2022/08/06 04:28:26;;;;;;;4.22;3.72;;;;;;;;;;5015354;28;20072;-86
2022/08/06 04:30:53;;;;;;;5.20;3.95;;;;;;;;;;5015309;28;20817;-88
2022/08/06 04:33:21;;;;;;;5.38;3.90;;;;;;;;;;5013609;28;20475;-86
2022/08/06 04:35:48;;;;;;;7.82;5.82;;;;;;;;;;5021103;28;20037;-87
2022/08/06 04:38:16;;;;;;;9.65;7.38;;;;;;;;;;5023935;28;20037;-85
2022/08/06 04:40:42;;;;;;;5.05;4.35;;;;;;;;;;5025913;28;20445;-85
2022/08/06 04:43:12;;;;;;;10.52;5.93;;;;;;;;;;5017617;28;20077;-86
2022/08/06 04:45:39;;;;;;;6.80;5.82;;;;;;;;;;5020886;28;20429;-85
2022/08/06 04:48:08;;;;;;;8.13;6.05;;;;;;;;;;5012196;28;20036;-84
2022/08/06 04:50:34;;;;;;;6.90;5.43;;;;;;;;;;5010436;28;20493;-85
2022/08/06 04:53:14;;;;;;;6.65;5.28;;;;;;;;;;5011142;28;20463;-85
2022/08/06 04:55:41;;;;;;;35.13;26.42;;;;;;;;;;5012331;28;20026;-84
2022/08/06 04:58:08;;;;;;;11.77;10.48;;;;;;;;;;5014035;28;20037;-85
2022/08/06 05:00:39;;;;;;;19.83;15.57;;;;;;;;;;5014385;28;20029;-85
2022/08/06 05:03:05;;;;;;;6.65;5.70;;;;;;;;;;5014826;28;20025;-85
2022/08/06 05:05:37;;;;;;;6.82;6.13;;;;;;;;;;5013299;28;20505;-85
2022/08/06 05:08:04;;;;;;;7.97;6.50;;;;;;;;;;5009888;28;20042;-84
2022/08/06 05:10:36;;;;;;;8.00;6.10;;;;;;;;;;5013837;28;20036;-83
2022/08/06 05:13:02;;;;;;;8.27;5.70;;;;;;;;;;5005745;28;20078;-85
2022/08/06 05:15:30;;;;;;;6.88;5.50;;;;;;;;;;5001231;28;20053;-86
2022/08/06 05:18:01;;;;;;;39.22;30.75;;;;;;;;;;5012567;28;20390;-85
2022/08/06 05:20:30;;;;;;;25.38;21.25;;;;;;;;;;5004966;28;20017;-85
2022/08/06 05:23:08;;;;;;;11.68;9.77;;;;;;;;;;5013859;28;20188;-85
2022/08/06 05:25:35;;;;;;;9.63;7.53;;;;;;;;;;5008446;28;20462;-85
2022/08/06 05:28:01;;;;;;;9.43;6.22;;;;;;;;;;4995617;28;20026;-85
2022/08/06 05:30:27;;;;;;;5.97;5.30;;;;;;;;;;5000799;28;20037;-85
2022/08/06 05:32:52;;;;;;;6.45;5.85;;;;;;;;;;5006052;28;20081;-84
2022/08/06 05:35:18;;;;;;;6.53;5.78;;;;;;;;;;5015271;28;20042;-84
2022/08/06 05:37:43;;;;;;;6.03;5.40;;;;;;;;;;5013954;28;20033;-87
2022/08/06 05:40:09;;;;;;;6.55;5.88;;;;;;;;;;5019075;28;20033;-85
2022/08/06 05:42:35;;;;;;;6.63;5.72;;;;;;;;;;5022184;28;20038;-79
2022/08/06 05:45:01;;;;;;;6.80;5.63;;;;;;;;;;5015265;28;20112;-81
2022/08/06 05:47:32;;;;;;;6.82;5.90;;;;;;;;;;5019005;28;20025;-81
2022/08/06 05:50:15;;;;;;;7.45;5.68;;;;;;;;;;5019624;28;20040;-82
2022/08/06 05:53:10;;;;;;;8.23;6.00;;;;;;;;;;5017542;28;20033;-82
2022/08/06 05:55:51;;;;;;;9.15;5.97;;;;;;;;;;5013034;28;20041;-81
2022/08/06 05:58:29;;;;;;;7.00;6.00;;;;;;;;;;4999747;28;20490;-84
2022/08/06 06:00:58;;;;;;;7.15;5.80;;;;;;;;;;5016417;28;20119;-81
2022/08/06 06:03:24;;;;;;;8.23;6.25;;;;;;;;;;5018063;28;20084;-86
2022/08/06 06:05:50;;;;;;;9.10;6.15;;;;;;;;;;5021328;28;20029;-84
2022/08/06 06:08:18;;;;;;;7.10;6.20;;;;;;;;;;5019416;28;20477;-85
2022/08/06 06:10:45;;;;;;;9.45;6.40;;;;;;;;;;5019842;28;20038;-83
2022/08/06 06:13:12;;;;;;;24.25;18.70;;;;;;;;;;5016417;28;20026;-83
2022/08/06 06:15:43;;;;;;;24.70;20.83;;;;;;;;;;5000412;28;20021;-81
2022/08/06 06:18:33;;;;;;;26.70;23.77;;;;;;;;;;5014766;28;20122;-84
2022/08/06 06:21:12;;;;;;;10.63;7.57;;;;;;;;;;5018274;28;20049;-86
2022/08/06 06:23:48;;;;;;;;;;;;;;;;;;5018047;28;20037;-83
2022/08/06 06:26:38;;;;;;;9.32;6.50;;;;;;;;;;5016544;28;20321;-86
2022/08/06 06:29:07;;;;;;;42.50;31.52;;;;;;;;;;5017786;28;20025;-87
2022/08/06 06:31:35;;;;;;;11.65;9.60;;;;;;;;;;5018419;28;20410;-85
2022/08/06 06:34:14;;;;;;;37.53;30.90;;;;;;;;;;5017777;28;20044;-85
2022/08/06 06:37:25;;;;;;;9.43;6.72;;;;;;;;;;5007339;28;20033;-87
2022/08/06 06:40:36;;;;;;;6.18;5.57;;;;;;;;;;5004602;28;20045;-85
2022/08/06 06:43:42;;;;;;;7.57;6.00;;;;;;;;;;5015292;28;20133;-86
2022/08/06 06:46:22;;;;;;;7.07;6.38;;;;;;;;;;4996094;28;20091;-85
2022/08/06 06:49:06;;;;;;;6.18;5.28;;;;;;;;;;5003840;28;20025;-86
2022/08/06 06:51:46;;;;;;;6.53;5.80;;;;;;;;;;5010802;28;20057;-86
2022/08/06 06:54:18;;;;;;;9.27;6.28;;;;;;;;;;5011216;28;20045;-87
2022/08/06 06:56:46;;;;;;;7.65;5.65;;;;;;;;;;4996991;28;20374;-87
2022/08/06 06:59:19;;;;;;;8.18;5.97;;;;;;;;;;5009977;28;20036;-85
2022/08/06 07:01:47;;;;;;;6.88;6.18;;;;;;;;;;5007333;28;20057;-85
2022/08/06 07:04:16;;;;;;;9.68;6.40;;;;;;;;;;5022782;28;20049;-85
2022/08/06 07:06:46;;;;;;;8.63;5.85;;;;;;;;;;5003441;28;20641;-84
2022/08/06 07:09:21;;;;;;;10.15;6.47;;;;;;;;;;5000906;28;20036;-85
2022/08/06 07:11:50;;;;;;;14.13;8.18;;;;;;;;;;5010627;28;20105;-84
2022/08/06 07:14:18;;;;;;;6.78;5.90;;;;;;;;;;5016560;28;20034;-85
2022/08/06 07:16:45;;;;;;;7.88;5.72;;;;;;;;;;5011888;28;20034;-83
2022/08/06 07:19:12;;;;;;;6.68;5.97;;;;;;;;;;5019788;28;20108;-84
2022/08/06 07:21:42;;;;;;;6.55;5.95;;;;;;;;;;5007802;28;20034;-84
2022/08/06 07:24:11;;;;;;;7.97;5.88;;;;;;;;;;5008061;28;20045;-85
2022/08/06 07:26:38;;;;;;;7.75;5.97;;;;;;;;;;5010751;28;20402;-83
2022/08/06 07:29:04;;;;;;;7.78;5.75;;;;;;;;;;5012538;28;20409;-82
2022/08/06 07:31:30;;;;;;;8.13;5.75;;;;;;;;;;5021275;28;20026;-83
2022/08/06 07:33:56;;;;;;;6.32;5.72;;;;;;;;;;5011889;28;20463;-83
2022/08/06 07:36:24;;;;;;;6.60;5.82;;;;;;;;;;5002465;28;20033;-85
2022/08/06 07:38:52;;;;;;;6.38;5.78;;;;;;;;;;5019193;28;20084;-84
2022/08/06 07:41:20;;;;;;;9.45;6.00;;;;;;;;;;5007698;28;20038;-84
2022/08/06 07:43:58;;;;;;;10.50;5.78;;;;;;;;;;5021146;28;20034;-85
2022/08/06 07:46:41;;;;;;;7.28;5.38;;;;;;;;;;5015208;28;20037;-84
2022/08/06 07:49:08;;;;;;;6.40;5.45;;;;;;;;;;5005458;28;20038;-87
2022/08/06 07:51:40;;;;;;;7.13;5.50;;;;;;;;;;5000268;28;20053;-88
2022/08/06 07:54:10;;;;;;;5.63;5.05;;;;;;;;;;5007235;28;20033;-85
2022/08/06 07:56:42;;;;;;;6.07;4.85;;;;;;;;;;5007792;28;20033;-85
2022/08/06 07:59:09;;;;;;;6.53;5.18;;;;;;;;;;5016816;28;20128;-83
2022/08/06 08:01:37;;;;;;;8.48;5.38;;;;;;;;;;5017611;28;20021;-83
2022/08/06 08:06:51;;;;;;;6.63;4.65;;;;;;;;;;5010464;28;20036;-85
2022/08/06 08:09:21;;;;;;;6.47;5.13;;;;;;;;;;5017049;28;20049;-86
2022/08/06 08:11:46;;;;;;;;;;;;;;;;;;5020967;28;20044;-84
2022/08/06 08:14:15;;;;;;;8.73;5.00;;;;;;;;;;5010120;28;19916;-85
2022/08/06 08:16:42;;;;;;;7.72;4.75;;;;;;;;;;5004951;28;20025;-87
2022/08/06 08:19:23;;;;;;;6.93;4.05;;;;;;;;;;5014012;28;20041;-85
2022/08/06 08:21:53;;;;;;;7.30;3.85;;;;;;;;;;5017295;28;20502;-85
2022/08/06 08:24:18;;;;;;;4.45;3.67;;;;;;;;;;5011012;28;20037;-84
2022/08/06 08:26:44;;;;;;;4.38;3.47;;;;;;;;;;5003592;28;20030;-84
2022/08/06 08:29:11;;;;;;;8.02;4.22;;;;;;;;;;4991627;28;20041;-85
2022/08/06 08:31:36;;;;;;;6.35;3.50;;;;;;;;;;5013545;28;20029;-85
2022/08/06 08:34:02;;;;;;;4.80;3.83;;;;;;;;;;5013328;28;20030;-85
2022/08/06 08:36:27;;;;;;;5.40;3.67;;;;;;;;;;5008577;28;20109;-84
2022/08/06 08:38:56;;;;;;;6.25;3.65;;;;;;;;;;5021236;28;20022;-85
2022/08/06 08:41:25;;;;;;;4.25;3.50;;;;;;;;;;5016770;28;20037;-85
2022/08/06 08:43:57;;;;;;;11.70;4.68;;;;;;;;;;5009761;28;20037;-83
2022/08/06 08:46:25;;;;;;;5.70;3.85;;;;;;;;;;5018493;28;20045;-85
2022/08/06 08:48:51;;;;;;;3.90;3.40;;;;;;;;;;5017028;28;20756;-85
2022/08/06 08:51:17;;;;;;;5.60;4.28;;;;;;;;;;5022996;28;20030;-84
2022/08/06 08:53:48;;;;;;;4.53;3.47;;;;;;;;;;5018518;28;20028;-84
2022/08/06 08:56:14;;;;;;;4.60;3.58;;;;;;;;;;5014367;28;20132;-83
2022/08/06 08:58:41;;;;;;;6.00;3.70;;;;;;;;;;5014389;28;20512;-84
2022/08/06 09:01:08;;;;;;;4.55;3.72;;;;;;;;;;5017731;28;20032;-85
2022/08/06 09:03:35;;;;;;;3.78;3.38;;;;;;;;;;5019127;28;20477;-83
2022/08/06 09:06:02;;;;;;;4.53;3.72;;;;;;;;;;5022195;28;20025;-85
2022/08/06 09:08:30;;;;;;;4.45;3.88;;;;;;;;;;5015650;28;20035;-83
2022/08/06 09:10:56;;;;;;;5.75;3.70;;;;;;;;;;5012819;28;20038;-84
2022/08/06 09:13:24;;;;;;;4.35;3.80;;;;;;;;;;4997906;28;20060;-85
2022/08/06 09:15:51;;;;;;;5.80;3.30;;;;;;;;;;5025938;28;20033;-84
2022/08/06 09:18:17;;;;;;;13.23;11.75;;;;;;;;;;5004590;28;20084;-83
2022/08/06 09:20:42;;;;;;;10.35;8.93;;;;;;;;;;5005961;28;20029;-83
2022/08/06 09:23:08;;;;;;;5.85;5.13;;;;;;;;;;5021132;28;20028;-83
2022/08/06 09:25:42;;;;;;;4.68;3.47;;;;;;;;;;5011194;28;20680;-86
2022/08/06 09:28:29;;;;;;;4.38;3.50;;;;;;;;;;5014256;28;20029;-84
2022/08/06 09:31:08;;;;;;;7.50;4.25;;;;;;;;;;5019079;28;20030;-84
2022/08/06 09:33:37;;;;;;;6.68;4.05;;;;;;;;;;5011795;28;20443;-85
2022/08/06 09:36:09;;;;;;;5.00;3.63;;;;;;;;;;5003928;28;20022;-82
2022/08/06 09:38:49;;;;;;;4.07;3.55;;;;;;;;;;5009526;28;20434;-85
2022/08/06 09:41:17;;;;;;;11.75;9.02;;;;;;;;;;5009087;28;20043;-83
2022/08/06 09:43:48;;;;;;;7.10;6.35;;;;;;;;;;5016679;28;20109;-84
2022/08/06 09:46:14;;;;;;;7.32;5.45;;;;;;;;;;4992853;28;20087;-83
2022/08/06 09:48:59;;;;;;;6.82;4.15;;;;;;;;;;5018374;28;20068;-85
2022/08/06 09:51:26;;;;;;;4.30;3.60;;;;;;;;;;5011680;28;20516;-86
2022/08/06 09:53:58;;;;;;;4.85;3.72;;;;;;;;;;5011500;28;20032;-84
2022/08/06 09:56:24;;;;;;;7.53;3.95;;;;;;;;;;5017926;28;20026;-86
2022/08/06 09:58:50;;;;;;;6.22;4.40;;;;;;;;;;5009737;28;20049;-85
2022/08/06 10:01:19;;;;;;;4.60;3.90;;;;;;;;;;5013258;28;20062;-89
2022/08/06 10:03:45;;;;;;;4.73;3.83;;;;;;;;;;5013086;28;20034;-83
2022/08/06 10:06:15;;;;;;;5.35;4.00;;;;;;;;;;5008466;28;20026;-85
2022/08/06 10:08:43;;;;;;;6.45;4.13;;;;;;;;;;5020894;28;20444;-86
2022/08/06 10:11:09;;;;;;;5.10;3.63;;;;;;;;;;5017704;28;20022;-86
2022/08/06 10:13:37;;;;;;;7.20;3.92;;;;;;;;;;5015808;28;20020;-84
2022/08/06 10:16:16;;;;;;;4.27;3.67;;;;;;;;;;4998665;28;20045;-87
2022/08/06 10:18:44;;;;;;;4.32;3.88;;;;;;;;;;5015080;28;20544;-82
2022/08/06 10:21:25;;;;;;;6.13;4.18;;;;;;;;;;5010423;28;20038;-87
2022/08/06 10:23:54;;;;;;;20.27;17.48;;;;;;;;;;5017889;28;20026;-85
2022/08/06 10:26:27;;;;;;;21.05;16.92;;;;;;;;;;5010400;28;20045;-83
2022/08/06 10:28:53;;;;;;;4.93;3.78;;;;;;;;;;5013267;28;20091;-83
2022/08/06 10:31:20;;;;;;;4.30;3.90;;;;;;;;;;5003913;28;20032;-83
2022/08/06 10:33:49;;;;;;;4.50;3.95;;;;;;;;;;5020553;28;20035;-87
2022/08/06 10:36:18;;;;;;;6.78;3.92;;;;;;;;;;5002294;28;20710;-87
2022/08/06 10:38:50;;;;;;;5.55;4.85;;;;;;;;;;5007118;28;20032;-86
2022/08/06 10:41:16;;;;;;;5.53;3.92;;;;;;;;;;5014641;28;20081;-85
2022/08/06 10:43:42;;;;;;;4.78;3.63;;;;;;;;;;5021009;28;20033;-84
2022/08/06 10:46:10;;;;;;;8.15;5.60;;;;;;;;;;5015579;28;20703;-85
2022/08/06 10:48:37;;;;;;;9.88;8.65;;;;;;;;;;5023343;28;20022;-88
2022/08/06 10:51:05;;;;;;;10.18;6.88;;;;;;;;;;4998135;28;20030;-86
2022/08/06 10:53:36;;;;;;;3.42;3.13;;;;;;;;;;5017587;28;20049;-86
2022/08/06 10:56:06;;;;;;;5.25;3.45;;;;;;;;;;5012130;28;20065;-86
2022/08/06 10:58:33;;;;;;;7.60;3.90;;;;;;;;;;5020289;28;20055;-86
2022/08/06 11:01:02;;;;;;;4.72;3.72;;;;;;;;;;5021320;28;20029;-84
2022/08/06 11:03:58;;;;;;;5.20;3.97;;;;;;;;;;5009306;28;20037;-85
2022/08/06 11:07:05;;;;;;;7.70;3.80;;;;;;;;;;5005169;28;20041;-84
2022/08/06 11:09:37;;;;;;;5.38;3.20;;;;;;;;;;5004113;28;20038;-85
2022/08/06 11:12:16;;;;;;;5.95;3.58;;;;;;;;;;5022005;28;20108;-84
2022/08/06 11:14:44;;;;;;;4.07;3.38;;;;;;;;;;5008713;28;20053;-84
2022/08/06 11:17:10;;;;;;;6.82;3.60;;;;;;;;;;5011208;28;20079;-83
2022/08/06 11:19:44;;;;;;;6.43;3.70;;;;;;;;;;5018384;28;20465;-85
2022/08/06 11:22:42;;;;;;;4.00;3.45;;;;;;;;;;5011363;28;20053;-83
2022/08/06 11:25:09;;;;;;;5.10;3.05;;;;;;;;;;4973076;28;20450;-82
2022/08/06 11:27:56;;;;;;;5.15;3.60;;;;;;;;;;5004151;28;20065;-83
2022/08/06 11:30:36;;;;;;;4.72;3.38;;;;;;;;;;5008699;28;20088;-83
2022/08/06 11:33:01;;;;;;;3.35;3.05;;;;;;;;;;5024438;28;20033;-83
2022/08/06 11:35:33;;;;;;;5.07;3.30;;;;;;;;;;5009419;28;20032;-83
2022/08/06 11:38:10;;;;;;;3.75;3.33;;;;;;;;;;5015893;28;20357;-83
2022/08/06 11:40:54;;;;;;;3.67;3.25;;;;;;;;;;5013263;28;20029;-84
2022/08/06 11:44:03;;;;;;;3.50;3.03;;;;;;;;;;5012393;28;20029;-82
2022/08/06 11:46:29;;;;;;;3.60;3.17;;;;;;;;;;5009111;28;20097;-81
2022/08/06 11:48:58;;;;;;;3.45;3.15;;;;;;;;;;5008272;28;20405;-82
2022/08/06 11:51:43;;;;;;;3.40;3.00;;;;;;;;;;5004145;28;20060;-81
2022/08/06 11:54:12;;;;;;;5.10;3.25;;;;;;;;;;5017437;28;20108;-84
2022/08/06 11:56:56;;;;;;;4.13;3.72;;;;;;;;;;5012164;28;20076;-82
2022/08/06 11:59:22;;;;;;;6.35;3.63;;;;;;;;;;5008359;28;20098;-86
2022/08/06 12:01:48;;;;;;;4.00;3.60;;;;;;;;;;4999137;28;20025;-83
2022/08/06 12:04:35;;;;;;;4.03;3.47;;;;;;;;;;4995874;28;20098;-84
2022/08/06 12:07:14;;;;;;;4.53;3.50;;;;;;;;;;5015151;28;20025;-82
2022/08/06 12:09:39;;;;;;;4.18;3.78;;;;;;;;;;5011384;28;20025;-82
2022/08/06 12:12:45;;;;;;;5.57;3.65;;;;;;;;;;5008385;28;20474;-83
2022/08/06 12:15:14;;;;;;;4.90;3.70;;;;;;;;;;4922212;29;20524;-82
2022/08/06 12:17:42;;;;;;;4.50;3.92;;;;;;;;;;4928386;29;20047;-82
2022/08/06 12:20:08;;;;;;;4.18;3.40;;;;;;;;;;4928909;29;20063;-83
2022/08/06 12:22:35;;;;;;;4.80;3.83;;;;;;;;;;4947766;28;20053;-83
2022/08/06 12:25:06;;;;;;;4.13;3.60;;;;;;;;;;5012083;28;20493;-82
2022/08/06 12:27:33;;;;;;;5.50;3.70;;;;;;;;;;5007747;28;20029;-83
2022/08/06 12:30:01;;;;;;;4.72;3.75;;;;;;;;;;5012378;28;20022;-82
2022/08/06 12:32:34;;;;;;;3.80;3.42;;;;;;;;;;5005532;28;20022;-83
2022/08/06 12:35:03;;;;;;;4.03;3.63;;;;;;;;;;5015452;28;20029;-82
2022/08/06 12:37:43;;;;;;;4.47;3.93;;;;;;;;;;5012656;28;20118;-83
2022/08/06 12:40:28;;;;;;;4.10;3.67;;;;;;;;;;5018766;28;20267;-83
2022/08/06 12:43:09;;;;;;;5.93;3.92;;;;;;;;;;5020292;28;20383;-85
2022/08/06 12:45:34;;;;;;;3.83;3.42;;;;;;;;;;5026365;28;20083;-85
2022/08/06 12:48:02;;;;;;;4.03;3.63;;;;;;;;;;5016892;28;20124;-85
2022/08/06 12:50:29;;;;;;;4.15;3.75;;;;;;;;;;5022649;28;20033;-82
2022/08/06 12:53:05;;;;;;;5.13;3.60;;;;;;;;;;5021917;28;20022;-86
2022/08/06 12:55:49;;;;;;;4.65;3.95;;;;;;;;;;5006007;28;20029;-84
2022/08/06 12:58:20;;;;;;;5.07;3.53;;;;;;;;;;5009111;28;20463;-84
2022/08/06 13:00:49;;;;;;;6.05;4.07;;;;;;;;;;5005880;28;20470;-85
2022/08/06 13:03:17;;;;;;;4.53;3.58;;;;;;;;;;5017247;28;20492;-84
2022/08/06 13:05:43;;;;;;;5.50;3.83;;;;;;;;;;5008796;28;20026;-85
2022/08/06 13:08:10;;;;;;;4.45;3.50;;;;;;;;;;5010310;28;20482;-85
2022/08/06 13:10:36;;;;;;;4.85;3.80;;;;;;;;;;5014621;28;20040;-85
2022/08/06 13:13:09;;;;;;;5.05;3.60;;;;;;;;;;5025335;28;20474;-86
2022/08/06 13:15:36;;;;;;;5.30;3.40;;;;;;;;;;4998794;28;20367;-85
2022/08/06 13:36:10;;;;;;;5.45;4.10;;;;;;;;;;4969155;28;20073;-86
2022/08/06 13:42:46;;;;;;;3.55;3.22;;;;;;;;;;4892800;29;20055;-86
2022/08/06 13:45:28;;;;;;;3.95;3.65;;;;;;;;;;4925149;28;20039;-84
2022/08/06 13:48:14;;;;;;;4.03;3.63;;;;;;;;;;4959684;28;20132;-86
2022/08/06 13:51:34;;;;;;;6.40;3.72;;;;;;;;;;4961647;28;20568;-84
2022/08/06 13:54:07;;;;;;;3.70;3.40;;;;;;;;;;4927971;29;20068;-84
2022/08/06 13:56:33;;;;;;;4.82;3.50;;;;;;;;;;4913868;29;20122;-85
2022/08/06 13:59:37;;;;;;;5.75;3.88;;;;;;;;;;4913569;29;20136;-84
2022/08/06 14:06:14;;;;;;;3.92;3.58;;;;;;;;;;4935062;29;20423;-85
2022/08/06 14:09:21;;;;;;;4.63;3.42;;;;;;;;;;4905326;29;20055;-88
2022/08/06 14:12:27;;;;;;;12.38;10.27;;;;;;;;;;4966421;28;20517;-86
2022/08/06 14:14:52;;;;;;;9.88;8.95;;;;;;;;;;4984962;28;20030;-86
2022/08/06 14:17:40;;;;;;;4.18;3.60;;;;;;;;;;4982308;28;20053;-87
2022/08/06 14:20:48;;;;;;;4.38;3.13;;;;;;;;;;4975841;28;20488;-87
2022/08/06 14:23:49;;;;;;;3.83;3.43;;;;;;;;;;4985289;28;20026;-85
2022/08/06 14:26:21;;;;;;;5.05;3.65;;;;;;;;;;4969870;28;20394;-85
2022/08/06 14:29:21;;;;;;;4.03;3.63;;;;;;;;;;4978819;28;20038;-86
2022/08/06 14:45:18;;;;;;;5.00;3.80;;;;;;;;;;4916452;29;20542;-83
2022/08/06 14:51:41;;;;;;;4.95;4.45;;;;;;;;;;4914058;29;20070;-84
2022/08/06 14:57:35;;;;;;;15.00;12.00;;;;;;;;;;4847520;29;20046;-86
2022/08/06 15:00:04;;;;;;;5.70;4.65;;;;;;;;;;4866513;29;20044;-86
2022/08/06 15:02:30;;;;;;;;;;;;;;;;;;4946760;28;20671;-85
2022/08/06 15:04:55;;;;;;;5.32;4.30;;;;;;;;;;5000445;28;19949;-86
2022/08/06 15:07:21;;;;;;;5.07;3.55;;;;;;;;;;4995253;28;20094;-85
2022/08/06 15:09:47;;;;;;;18.98;16.15;;;;;;;;;;5002463;28;20060;-87
2022/08/06 15:12:12;;;;;;;4.90;4.32;;;;;;;;;;4995775;28;20030;-86
2022/08/06 15:14:38;;;;;;;7.10;5.30;;;;;;;;;;5001300;28;20063;-87
2022/08/06 15:17:03;;;;;;;5.30;3.78;;;;;;;;;;5000163;28;20038;-87
2022/08/06 15:19:29;;;;;;;5.55;3.85;;;;;;;;;;5001115;28;20049;-88
2022/08/06 15:21:54;;;;;;;6.72;6.05;;;;;;;;;;4992226;28;20410;-83
2022/08/06 15:24:20;;;;;;;8.00;5.32;;;;;;;;;;4974146;28;20026;-85
2022/08/06 15:26:45;;;;;;;5.72;5.18;;;;;;;;;;4995623;28;20034;-85
2022/08/06 15:29:11;;;;;;;5.43;4.55;;;;;;;;;;4992201;28;20026;-84
2022/08/06 15:31:37;;;;;;;6.68;4.22;;;;;;;;;;4993778;28;20030;-85
2022/08/06 15:34:03;;;;;;;4.93;4.38;;;;;;;;;;4991179;28;20483;-87
2022/08/06 15:36:29;;;;;;;5.95;4.22;;;;;;;;;;4988234;28;20026;-86
2022/08/06 15:38:54;;;;;;;6.10;4.82;;;;;;;;;;4993808;28;20113;-86
2022/08/06 15:41:23;;;;;;;5.80;4.65;;;;;;;;;;4992384;28;20061;-87
2022/08/06 15:43:50;;;;;;;5.50;4.88;;;;;;;;;;5008567;28;20041;-86
2022/08/06 15:46:16;;;;;;;5.05;4.60;;;;;;;;;;5018724;28;20096;-85
2022/08/06 15:48:41;;;;;;;5.43;4.80;;;;;;;;;;5020222;28;20171;-86
2022/08/06 15:51:07;;;;;;;4.78;4.28;;;;;;;;;;5017434;28;20076;-85
2022/08/06 15:53:32;;;;;;;5.65;4.30;;;;;;;;;;5003859;28;20033;-84
2022/08/06 15:55:58;;;;;;;5.35;4.70;;;;;;;;;;5022299;28;20029;-87
2022/08/06 15:58:23;;;;;;;4.95;4.45;;;;;;;;;;5016207;28;20029;-85